KSBY/SBY METAR and TAF weather

Enter ICAO airport designator
Station Type Date Time Source
KSBY METAR 2019/10/23 01:54 UTC NOAA

KSBY 230154Z 25004KT 3SM RA BR SCT009 BKN015 OVC029 20/18 A2982 RMK AO2 RAB10E34B47 SLP099 P0004 T02000183


Station Type Date Time Source
KSBY Decoded METAR 2019/10/23 01:54 UTC NOAA

SALISBURY-WICOMICO CTY REG, MD, United States (KSBY) 38-20N 075-30W 19M
Oct 22, 2019 - 09:54 PM EDT / 2019.10.23 0154 UTC
Wind: from the WSW (250 degrees) at 5 MPH (4 KT):0
Visibility: 3 mile(s):0
Sky conditions: overcast
Weather: rain; mist
Precipitation last hour: 0.04 inches
Temperature: 68.0 F (20.0 C)
Dew Point: 64.9 F (18.3 C)
Relative Humidity: 89%
Pressure (altimeter): 29.82 in. Hg (1009 hPa)
ob: KSBY 230154Z 25004KT 3SM RA BR SCT009 BKN015 OVC029 20/18 A2982 RMK AO2 RAB10E34B47 SLP099 P0004 T02000183
cycle: 2

Station Type Date Time Source
KSBY TAF 2019/10/22 21:54 UTC NOAA

TAF
AMD KSBY 222050Z 2221/2318 15011KT P6SM VCSH OVC007
FM222300 16011KT 5SM SHRA OVC015
FM230200 23009KT P6SM VCSH OVC012
FM230400 26008KT P6SM VCSH OVC004
FM230600 30008KT P6SM BKN030
FM230900 30007KT P6SM SKC

Example: see airport list